sensor_id;sensor_type;location;lat;lon;timestamp;pressure;altitude;pressure_sealevel;temperature;humidity
15007;BME280;7599;50.748;13.142;2023-12-20T00:00:38;95153.91;;;15.08;45.99
15007;BME280;7599;50.748;13.142;2023-12-20T00:03:40;95158.06;;;15.02;46.22
15007;BME280;7599;50.748;13.142;2023-12-20T00:06:43;95165.09;;;15.07;46.46
15007;BME280;7599;50.748;13.142;2023-12-20T00:09:46;95153.00;;;15.01;46.03
15007;BME280;7599;50.748;13.142;2023-12-20T00:12:48;95150.72;;;15.03;46.03
15007;BME280;7599;50.748;13.142;2023-12-20T00:15:53;95134.13;;;15.04;46.40
15007;BME280;7599;50.748;13.142;2023-12-20T00:18:58;95139.91;;;15.03;46.53
15007;BME280;7599;50.748;13.142;2023-12-20T00:22:01;95138.34;;;15.02;46.30
15007;BME280;7599;50.748;13.142;2023-12-20T00:25:04;95126.72;;;15.01;46.07
15007;BME280;7599;50.748;13.142;2023-12-20T00:28:06;95121.59;;;14.96;46.37
15007;BME280;7599;50.748;13.142;2023-12-20T00:31:10;95125.16;;;15.00;46.30
15007;BME280;7599;50.748;13.142;2023-12-20T00:34:13;95113.09;;;14.94;46.32
15007;BME280;7599;50.748;13.142;2023-12-20T00:37:16;95117.75;;;14.97;46.27
15007;BME280;7599;50.748;13.142;2023-12-20T00:40:18;95119.69;;;14.97;46.17
15007;BME280;7599;50.748;13.142;2023-12-20T00:43:22;95115.03;;;14.97;46.50
15007;BME280;7599;50.748;13.142;2023-12-20T00:46:26;95114.63;;;14.95;46.30
15007;BME280;7599;50.748;13.142;2023-12-20T00:49:28;95121.97;;;14.95;46.62
15007;BME280;7599;50.748;13.142;2023-12-20T00:52:31;95102.56;;;14.89;46.41
15007;BME280;7599;50.748;13.142;2023-12-20T00:55:33;95109.59;;;14.94;46.62
15007;BME280;7599;50.748;13.142;2023-12-20T00:58:36;95114.94;;;14.90;46.30
15007;BME280;7599;50.748;13.142;2023-12-20T01:01:40;95101.41;;;14.90;46.08
15007;BME280;7599;50.748;13.142;2023-12-20T01:04:43;95102.56;;;14.89;46.53
15007;BME280;7599;50.748;13.142;2023-12-20T01:07:46;95097.94;;;14.90;46.53
15007;BME280;7599;50.748;13.142;2023-12-20T01:10:49;95087.47;;;14.88;46.63
15007;BME280;7599;50.748;13.142;2023-12-20T01:13:52;95082.03;;;14.88;46.78
15007;BME280;7599;50.748;13.142;2023-12-20T01:16:55;95087.81;;;14.87;46.42
15007;BME280;7599;50.748;13.142;2023-12-20T01:19:58;95077.66;;;14.80;46.41
15007;BME280;7599;50.748;13.142;2023-12-20T01:23:00;95090.91;;;14.85;46.43
15007;BME280;7599;50.748;13.142;2023-12-20T01:26:03;95075.31;;;14.78;46.45
15007;BME280;7599;50.748;13.142;2023-12-20T01:29:06;95089.69;;;14.82;46.51
15007;BME280;7599;50.748;13.142;2023-12-20T01:32:10;95078.09;;;14.82;46.59
15007;BME280;7599;50.748;13.142;2023-12-20T01:35:13;95069.13;;;14.78;46.44
15007;BME280;7599;50.748;13.142;2023-12-20T01:38:16;95087.75;;;14.83;46.25
15007;BME280;7599;50.748;13.142;2023-12-20T01:41:20;95079.25;;;14.81;46.67
15007;BME280;7599;50.748;13.142;2023-12-20T01:44:23;95088.84;;;14.78;46.58
15007;BME280;7599;50.748;13.142;2023-12-20T01:47:27;95088.84;;;14.78;46.67
15007;BME280;7599;50.748;13.142;2023-12-20T01:50:31;95083.03;;;14.76;46.49
15007;BME280;7599;50.748;13.142;2023-12-20T01:53:34;95077.63;;;14.76;46.36
15007;BME280;7599;50.748;13.142;2023-12-20T01:56:38;95064.09;;;14.76;46.68
15007;BME280;7599;50.748;13.142;2023-12-20T01:59:41;95059.03;;;14.75;46.79
15007;BME280;7599;50.748;13.142;2023-12-20T02:02:45;95054.75;;;14.74;46.71
15007;BME280;7599;50.748;13.142;2023-12-20T02:05:48;95051.66;;;14.72;46.85
15007;BME280;7599;50.748;13.142;2023-12-20T02:08:50;95050.06;;;14.71;46.46
15007;BME280;7599;50.748;13.142;2023-12-20T02:11:54;95056.25;;;14.71;46.88
15007;BME280;7599;50.748;13.142;2023-12-20T02:14:56;95046.19;;;14.68;46.90
15007;BME280;7599;50.748;13.142;2023-12-20T02:18:00;95044.63;;;14.67;46.49
15007;BME280;7599;50.748;13.142;2023-12-20T02:21:04;95042.69;;;14.68;46.48
15007;BME280;7599;50.748;13.142;2023-12-20T02:24:08;95043.81;;;14.67;46.63
15007;BME280;7599;50.748;13.142;2023-12-20T02:27:11;95046.13;;;14.65;46.40
15007;BME280;7599;50.748;13.142;2023-12-20T02:30:14;95039.94;;;14.64;47.01
15007;BME280;7599;50.748;13.142;2023-12-20T02:33:17;95032.91;;;14.60;46.57
15007;BME280;7599;50.748;13.142;2023-12-20T02:36:19;95027.06;;;14.57;46.99
15007;BME280;7599;50.748;13.142;2023-12-20T02:39:23;95033.31;;;14.62;46.43
15007;BME280;7599;50.748;13.142;2023-12-20T02:42:25;95036.00;;;14.62;47.05
15007;BME280;7599;50.748;13.142;2023-12-20T02:45:28;95027.84;;;14.58;46.72
15007;BME280;7599;50.748;13.142;2023-12-20T02:48:30;95032.91;;;14.60;46.63
15007;BME280;7599;50.748;13.142;2023-12-20T02:51:33;95035.16;;;14.57;46.76
15007;BME280;7599;50.748;13.142;2023-12-20T02:54:37;95014.22;;;14.51;46.40
15007;BME280;7599;50.748;13.142;2023-12-20T02:57:39;95024.28;;;14.54;46.72
15007;BME280;7599;50.748;13.142;2023-12-20T03:00:43;95032.84;;;14.56;46.97
15007;BME280;7599;50.748;13.142;2023-12-20T03:03:46;95034.34;;;14.53;47.07
15007;BME280;7599;50.748;13.142;2023-12-20T03:06:48;95035.09;;;14.54;46.86
15007;BME280;7599;50.748;13.142;2023-12-20T03:09:52;95030.44;;;14.51;46.75
15007;BME280;7599;50.748;13.142;2023-12-20T03:13:15;95028.50;;;14.51;46.87
15007;BME280;7599;50.748;13.142;2023-12-20T03:16:17;95018.06;;;14.50;47.11
15007;BME280;7599;50.748;13.142;2023-12-20T03:19:20;95015.72;;;14.48;46.91
15007;BME280;7599;50.748;13.142;2023-12-20T03:22:24;95013.78;;;14.49;46.78
15007;BME280;7599;50.748;13.142;2023-12-20T03:25:27;95017.59;;;14.48;46.57
15007;BME280;7599;50.748;13.142;2023-12-20T03:28:30;95017.97;;;14.46;46.97
15007;BME280;7599;50.748;13.142;2023-12-20T03:31:33;95023.38;;;14.46;46.64
15007;BME280;7599;50.748;13.142;2023-12-20T03:34:35;95031.84;;;14.45;47.11
15007;BME280;7599;50.748;13.142;2023-12-20T03:37:38;95028.34;;;14.44;47.04
15007;BME280;7599;50.748;13.142;2023-12-20T03:40:42;95018.69;;;14.43;46.87
15007;BME280;7599;50.748;13.142;2023-12-20T03:43:44;95023.69;;;14.41;46.84
15007;BME280;7599;50.748;13.142;2023-12-20T03:46:47;95026.38;;;14.41;47.10
15007;BME280;7599;50.748;13.142;2023-12-20T03:49:50;95034.84;;;14.40;46.99
15007;BME280;7599;50.748;13.142;2023-12-20T03:52:53;95039.47;;;14.39;47.22
15007;BME280;7599;50.748;13.142;2023-12-20T03:55:56;95043.31;;;14.38;47.11
15007;BME280;7599;50.748;13.142;2023-12-20T03:58:59;95042.53;;;14.38;46.90
15007;BME280;7599;50.748;13.142;2023-12-20T04:02:02;95031.59;;;14.30;46.91
15007;BME280;7599;50.748;13.142;2023-12-20T04:05:05;95026.56;;;14.29;46.94
15007;BME280;7599;50.748;13.142;2023-12-20T04:08:08;95037.84;;;14.34;47.00
15007;BME280;7599;50.748;13.142;2023-12-20T04:11:12;95040.56;;;14.34;47.18
15007;BME280;7599;50.748;13.142;2023-12-20T04:14:15;95032.44;;;14.34;47.19
15007;BME280;7599;50.748;13.142;2023-12-20T04:17:18;95046.31;;;14.33;47.13
15007;BME280;7599;50.748;13.142;2023-12-20T04:20:20;95044.16;;;14.42;46.87
15007;BME280;7599;50.748;13.142;2023-12-20T04:23:23;95033.16;;;14.51;46.41
15007;BME280;7599;50.748;13.142;2023-12-20T04:26:27;95039.47;;;14.58;46.33
15007;BME280;7599;50.748;13.142;2023-12-20T04:29:30;95040.78;;;14.68;46.71
15007;BME280;7599;50.748;13.142;2023-12-20T04:32:33;95032.81;;;14.79;46.55
15007;BME280;7599;50.748;13.142;2023-12-20T04:35:40;95031.47;;;14.92;46.34
15007;BME280;7599;50.748;13.142;2023-12-20T04:38:44;95037.47;;;15.05;45.78
15007;BME280;7599;50.748;13.142;2023-12-20T04:41:48;95034.63;;;15.21;46.08
15007;BME280;7599;50.748;13.142;2023-12-20T04:44:51;95034.03;;;15.34;45.38
15007;BME280;7599;50.748;13.142;2023-12-20T04:47:54;95035.81;;;15.50;45.27
15007;BME280;7599;50.748;13.142;2023-12-20T04:50:57;95036.78;;;15.65;44.84
15007;BME280;7599;50.748;13.142;2023-12-20T04:54:00;95042.38;;;15.79;44.96
15007;BME280;7599;50.748;13.142;2023-12-20T04:57:04;95037.88;;;15.90;44.90
15007;BME280;7599;50.748;13.142;2023-12-20T05:00:07;95036.84;;;16.02;44.22
15007;BME280;7599;50.748;13.142;2023-12-20T05:03:10;95036.53;;;16.11;44.12
15007;BME280;7599;50.748;13.142;2023-12-20T05:06:13;95043.22;;;16.17;44.35
15007;BME280;7599;50.748;13.142;2023-12-20T05:09:16;95049.44;;;16.21;43.76
15007;BME280;7599;50.748;13.142;2023-12-20T05:12:20;95050.63;;;16.23;43.83
15007;BME280;7599;50.748;13.142;2023-12-20T05:15:23;95054.13;;;16.24;43.85
15007;BME280;7599;50.748;13.142;2023-12-20T05:18:25;95049.81;;;16.19;43.91
15007;BME280;7599;50.748;13.142;2023-12-20T05:21:28;95057.59;;;16.21;44.18
15007;BME280;7599;50.748;13.142;2023-12-20T05:24:32;95059.13;;;16.22;44.10
15007;BME280;7599;50.748;13.142;2023-12-20T05:27:36;95048.19;;;16.15;43.84
15007;BME280;7599;50.748;13.142;2023-12-20T05:30:38;95056.38;;;16.18;44.02
15007;BME280;7599;50.748;13.142;2023-12-20T05:33:41;95060.63;;;16.16;43.92
15007;BME280;7599;50.748;13.142;2023-12-20T05:36:45;95066.41;;;16.14;43.87
15007;BME280;7599;50.748;13.142;2023-12-20T05:39:48;95064.44;;;16.11;44.21
15007;BME280;7599;50.748;13.142;2023-12-20T05:42:52;95074.09;;;16.08;44.47
15007;BME280;7599;50.748;13.142;2023-12-20T05:45:54;95060.88;;;16.03;44.49
15007;BME280;7599;50.748;13.142;2023-12-20T05:48:57;95067.81;;;16.01;44.44
15007;BME280;7599;50.748;13.142;2023-12-20T05:51:59;95076.69;;;15.98;44.50
15007;BME280;7599;50.748;13.142;2023-12-20T05:55:02;95078.91;;;15.92;44.50
15007;BME280;7599;50.748;13.142;2023-12-20T05:58:06;95081.22;;;15.90;44.66
15007;BME280;7599;50.748;13.142;2023-12-20T06:01:09;95076.53;;;15.87;44.30
15007;BME280;7599;50.748;13.142;2023-12-20T06:04:11;95083.47;;;15.84;44.36
15007;BME280;7599;50.748;13.142;2023-12-20T06:07:15;95082.66;;;15.80;44.58
15007;BME280;7599;50.748;13.142;2023-12-20T06:10:18;95085.31;;;15.77;44.82
15007;BME280;7599;50.748;13.142;2023-12-20T06:13:23;95079.06;;;15.73;44.42
15007;BME280;7599;50.748;13.142;2023-12-20T06:16:26;95067.72;;;15.64;44.96
15007;BME280;7599;50.748;13.142;2023-12-20T06:19:28;95085.59;;;15.68;44.78
15007;BME280;7599;50.748;13.142;2023-12-20T06:22:31;95085.53;;;15.65;44.95
15007;BME280;7599;50.748;13.142;2023-12-20T06:25:33;95086.25;;;15.62;44.62
15007;BME280;7599;50.748;13.142;2023-12-20T06:28:37;95101.31;;;15.59;45.12
15007;BME280;7599;50.748;13.142;2023-12-20T06:31:42;95104.75;;;15.56;44.67
15007;BME280;7599;50.748;13.142;2023-12-20T06:34:45;95114.38;;;15.53;45.07
15007;BME280;7599;50.748;13.142;2023-12-20T06:37:47;95113.19;;;15.51;45.27
15007;BME280;7599;50.748;13.142;2023-12-20T06:40:50;95118.94;;;15.49;45.01
15007;BME280;7599;50.748;13.142;2023-12-20T06:43:54;95113.91;;;15.48;44.81
15007;BME280;7599;50.748;13.142;2023-12-20T06:46:56;95115.41;;;15.45;45.31
15007;BME280;7599;50.748;13.142;2023-12-20T06:49:59;95098.28;;;15.38;44.86
15007;BME280;7599;50.748;13.142;2023-12-20T06:53:02;95116.09;;;15.39;45.39
15007;BME280;7599;50.748;13.142;2023-12-20T06:56:10;95125.00;;;15.39;45.42
15007;BME280;7599;50.748;13.142;2023-12-20T06:59:17;95125.00;;;15.39;45.24
15007;BME280;7599;50.748;13.142;2023-12-20T07:02:20;95129.63;;;15.39;45.10
15007;BME280;7599;50.748;13.142;2023-12-20T07:05:24;95118.34;;;15.33;45.11
15007;BME280;7599;50.748;13.142;2023-12-20T07:08:26;95123.38;;;15.34;45.00
15007;BME280;7599;50.748;13.142;2023-12-20T07:11:29;95128.78;;;15.34;45.00
15007;BME280;7599;50.748;13.142;2023-12-20T07:14:33;95143.47;;;15.33;45.54
15007;BME280;7599;50.748;13.142;2023-12-20T07:17:35;95141.13;;;15.32;45.07
15007;BME280;7599;50.748;13.142;2023-12-20T07:20:37;95144.97;;;15.31;45.25
15007;BME280;7599;50.748;13.142;2023-12-20T07:23:40;95139.50;;;15.27;45.29
15007;BME280;7599;50.748;13.142;2023-12-20T07:26:43;95151.91;;;15.28;45.12
15007;BME280;7599;50.748;13.142;2023-12-20T07:29:46;95155.75;;;15.27;46.66
15007;BME280;7599;50.748;13.142;2023-12-20T07:32:49;95151.75;;;15.44;46.20
15007;BME280;7599;50.748;13.142;2023-12-20T07:35:51;95149.84;;;15.68;46.00
15007;BME280;7599;50.748;13.142;2023-12-20T07:38:54;95155.13;;;15.87;45.61
15007;BME280;7599;50.748;13.142;2023-12-20T07:41:57;95144.84;;;16.00;45.52
15007;BME280;7599;50.748;13.142;2023-12-20T07:45:00;95150.91;;;16.20;45.01
15007;BME280;7599;50.748;13.142;2023-12-20T07:48:04;95150.69;;;16.36;44.56
15007;BME280;7599;50.748;13.142;2023-12-20T07:51:07;95152.78;;;16.49;44.25
15007;BME280;7599;50.748;13.142;2023-12-20T07:54:11;95162.63;;;16.61;44.37
15007;BME280;7599;50.748;13.142;2023-12-20T07:57:13;95154.97;;;16.70;44.24
15007;BME280;7599;50.748;13.142;2023-12-20T08:00:18;95141.56;;;16.84;44.19
15007;BME280;7599;50.748;13.142;2023-12-20T08:03:20;95142.06;;;16.97;43.72
15007;BME280;7599;50.748;13.142;2023-12-20T08:06:23;95142.19;;;17.08;43.45
15007;BME280;7599;50.748;13.142;2023-12-20T08:09:26;95134.09;;;17.15;43.29
15007;BME280;7599;50.748;13.142;2023-12-20T08:12:28;95139.28;;;17.31;42.92
15007;BME280;7599;50.748;13.142;2023-12-20T08:15:32;95132.66;;;17.32;43.88
15007;BME280;7599;50.748;13.142;2023-12-20T08:18:35;95132.34;;;17.37;43.40
15007;BME280;7599;50.748;13.142;2023-12-20T08:21:37;95128.91;;;17.47;43.03
15007;BME280;7599;50.748;13.142;2023-12-20T08:24:40;95139.50;;;17.59;43.08
15007;BME280;7599;50.748;13.142;2023-12-20T08:27:42;95114.25;;;17.63;43.09
15007;BME280;7599;50.748;13.142;2023-12-20T08:30:47;95133.06;;;17.82;42.79
15007;BME280;7599;50.748;13.142;2023-12-20T08:33:50;95120.25;;;17.86;42.53
15007;BME280;7599;50.748;13.142;2023-12-20T08:36:54;95137.44;;;18.01;42.13
15007;BME280;7599;50.748;13.142;2023-12-20T08:39:56;95135.53;;;18.08;42.28
15007;BME280;7599;50.748;13.142;2023-12-20T08:42:59;95135.56;;;18.16;41.86
15007;BME280;7599;50.748;13.142;2023-12-20T08:46:03;95134.44;;;18.20;41.65
15007;BME280;7599;50.748;13.142;2023-12-20T08:49:05;95156.19;;;18.27;41.63
15007;BME280;7599;50.748;13.142;2023-12-20T08:52:08;95158.97;;;18.34;41.77
15007;BME280;7599;50.748;13.142;2023-12-20T08:55:11;95153.91;;;18.40;41.89
15007;BME280;7599;50.748;13.142;2023-12-20T08:58:14;95158.22;;;18.48;41.15
15007;BME280;7599;50.748;13.142;2023-12-20T09:01:18;95170.69;;;18.53;41.44
15007;BME280;7599;50.748;13.142;2023-12-20T09:04:20;95159.81;;;18.56;41.47
15007;BME280;7599;50.748;13.142;2023-12-20T09:07:23;95144.69;;;18.59;41.31
15007;BME280;7599;50.748;13.142;2023-12-20T09:10:26;95145.88;;;18.69;41.05
15007;BME280;7599;50.748;13.142;2023-12-20T09:13:29;95156.41;;;18.84;40.97
15007;BME280;7599;50.748;13.142;2023-12-20T09:16:34;95150.59;;;18.86;40.67
15007;BME280;7599;50.748;13.142;2023-12-20T09:19:37;95149.06;;;19.06;40.37
15007;BME280;7599;50.748;13.142;2023-12-20T09:22:40;95172.84;;;19.34;39.52
15007;BME280;7599;50.748;13.142;2023-12-20T09:25:43;95180.25;;;19.48;39.61
15007;BME280;7599;50.748;13.142;2023-12-20T09:28:45;95169.34;;;19.48;39.60
15007;BME280;7599;50.748;13.142;2023-12-20T09:31:49;95153.00;;;19.59;39.17
15007;BME280;7599;50.748;13.142;2023-12-20T09:34:52;95149.09;;;19.71;39.27
15007;BME280;7599;50.748;13.142;2023-12-20T09:37:54;95139.38;;;19.66;39.46
15007;BME280;7599;50.748;13.142;2023-12-20T09:40:57;95140.13;;;19.52;41.59
15007;BME280;7599;50.748;13.142;2023-12-20T09:44:00;95143.28;;;19.62;42.14
15007;BME280;7599;50.748;13.142;2023-12-20T09:47:06;95130.81;;;19.61;41.68
15007;BME280;7599;50.748;13.142;2023-12-20T09:50:09;95126.91;;;19.69;42.16
15007;BME280;7599;50.748;13.142;2023-12-20T09:53:15;95130.00;;;19.71;41.57
15007;BME280;7599;50.748;13.142;2023-12-20T09:56:18;95144.81;;;19.77;41.40
15007;BME280;7599;50.748;13.142;2023-12-20T09:59:20;95130.78;;;19.82;41.26
15007;BME280;7599;50.748;13.142;2023-12-20T10:02:24;95122.59;;;19.86;41.61
15007;BME280;7599;50.748;13.142;2023-12-20T10:05:30;95122.19;;;19.91;41.66
15007;BME280;7599;50.748;13.142;2023-12-20T10:08:33;95113.16;;;20.15;40.88
15007;BME280;7599;50.748;13.142;2023-12-20T10:11:36;95118.16;;;20.27;40.56
15007;BME280;7599;50.748;13.142;2023-12-20T10:14:39;95116.25;;;20.21;40.55
15007;BME280;7599;50.748;13.142;2023-12-20T10:17:43;95099.13;;;20.13;41.05
15007;BME280;7599;50.748;13.142;2023-12-20T10:20:46;95110.03;;;20.13;41.12
15007;BME280;7599;50.748;13.142;2023-12-20T10:23:49;95096.41;;;20.13;41.23
15007;BME280;7599;50.748;13.142;2023-12-20T10:27:01;95099.13;;;20.17;41.33
15007;BME280;7599;50.748;13.142;2023-12-20T10:30:06;95087.81;;;20.15;41.02
15007;BME280;7599;50.748;13.142;2023-12-20T10:33:10;95097.53;;;20.23;41.31
15007;BME280;7599;50.748;13.142;2023-12-20T10:36:13;95093.25;;;20.25;40.95
15007;BME280;7599;50.748;13.142;2023-12-20T10:39:15;95099.06;;;20.27;41.21
15007;BME280;7599;50.748;13.142;2023-12-20T10:42:22;95087.72;;;20.32;41.22
15007;BME280;7599;50.748;13.142;2023-12-20T10:45:24;95081.06;;;20.41;40.90
15007;BME280;7599;50.748;13.142;2023-12-20T10:48:30;95069.34;;;20.47;41.12
15007;BME280;7599;50.748;13.142;2023-12-20T10:51:34;95072.88;;;20.48;41.48
15007;BME280;7599;50.748;13.142;2023-12-20T10:54:36;95072.88;;;20.51;40.55
15007;BME280;7599;50.748;13.142;2023-12-20T10:57:39;95070.50;;;20.57;40.89
15007;BME280;7599;50.748;13.142;2023-12-20T11:00:43;95060.34;;;20.57;40.46
15007;BME280;7599;50.748;13.142;2023-12-20T11:03:52;95063.84;;;20.62;40.50
15007;BME280;7599;50.748;13.142;2023-12-20T11:07:01;95064.25;;;20.56;40.25
15007;BME280;7599;50.748;13.142;2023-12-20T11:10:12;95056.88;;;20.50;40.87
15007;BME280;7599;50.748;13.142;2023-12-20T11:13:18;95047.13;;;20.45;40.52
15007;BME280;7599;50.748;13.142;2023-12-20T11:16:23;95044.38;;;20.52;40.58
15007;BME280;7599;50.748;13.142;2023-12-20T11:19:31;95058.38;;;20.58;40.16
15007;BME280;7599;50.748;13.142;2023-12-20T11:22:34;95056.81;;;20.64;40.01
15007;BME280;7599;50.748;13.142;2023-12-20T11:25:48;95052.91;;;20.65;40.33
15007;BME280;7599;50.748;13.142;2023-12-20T11:28:51;95033.03;;;20.57;40.07
15007;BME280;7599;50.748;13.142;2023-12-20T11:31:54;95049.75;;;20.67;40.14
15007;BME280;7599;50.748;13.142;2023-12-20T11:34:59;95061.06;;;20.72;39.95
15007;BME280;7599;50.748;13.142;2023-12-20T11:38:02;95051.69;;;20.70;39.75
15007;BME280;7599;50.748;13.142;2023-12-20T11:41:06;95055.97;;;20.71;39.85
15007;BME280;7599;50.748;13.142;2023-12-20T11:44:09;95039.59;;;20.67;40.00
15007;BME280;7599;50.748;13.142;2023-12-20T11:47:13;95041.53;;;20.74;39.62
15007;BME280;7599;50.748;13.142;2023-12-20T11:50:19;95043.47;;;20.77;40.18
15007;BME280;7599;50.748;13.142;2023-12-20T11:53:22;95038.38;;;20.79;40.20
15007;BME280;7599;50.748;13.142;2023-12-20T11:56:24;95041.88;;;20.79;39.70
15007;BME280;7599;50.748;13.142;2023-12-20T11:59:27;95032.47;;;20.84;39.98
15007;BME280;7599;50.748;13.142;2023-12-20T12:02:29;95025.03;;;20.88;39.50
15007;BME280;7599;50.748;13.142;2023-12-20T12:05:34;95028.81;;;21.01;39.68
15007;BME280;7599;50.748;13.142;2023-12-20T12:08:37;95031.50;;;21.08;39.57
15007;BME280;7599;50.748;13.142;2023-12-20T12:11:40;95011.19;;;21.09;39.04
15007;BME280;7599;50.748;13.142;2023-12-20T12:14:44;95024.03;;;21.16;39.04
15007;BME280;7599;50.748;13.142;2023-12-20T12:17:52;95021.22;;;21.20;39.13
15007;BME280;7599;50.748;13.142;2023-12-20T12:21:01;95007.97;;;21.22;39.05
15007;BME280;7599;50.748;13.142;2023-12-20T12:24:20;95005.25;;;21.18;39.18
15007;BME280;7599;50.748;13.142;2023-12-20T12:27:23;94992.78;;;21.17;39.06
15007;BME280;7599;50.748;13.142;2023-12-20T12:30:26;94990.03;;;21.17;39.00
15007;BME280;7599;50.748;13.142;2023-12-20T12:33:35;94980.34;;;21.09;38.86
15007;BME280;7599;50.748;13.142;2023-12-20T12:36:40;94977.22;;;21.11;39.24
15007;BME280;7599;50.748;13.142;2023-12-20T12:39:46;94979.91;;;21.14;39.19
15007;BME280;7599;50.748;13.142;2023-12-20T12:42:49;94976.09;;;21.08;39.17
15007;BME280;7599;50.748;13.142;2023-12-20T12:45:53;94971.00;;;21.06;39.65
15007;BME280;7599;50.748;13.142;2023-12-20T12:48:57;94974.91;;;21.09;39.11
15007;BME280;7599;50.748;13.142;2023-12-20T12:52:15;94958.94;;;21.04;39.16
15007;BME280;7599;50.748;13.142;2023-12-20T12:55:23;94974.16;;;21.05;39.38
15007;BME280;7599;50.748;13.142;2023-12-20T12:58:26;94960.94;;;21.00;39.25
15007;BME280;7599;50.748;13.142;2023-12-20T13:01:28;94969.03;;;21.07;39.31
15007;BME280;7599;50.748;13.142;2023-12-20T13:04:31;94960.50;;;21.05;39.26
15007;BME280;7599;50.748;13.142;2023-12-20T13:07:36;94948.78;;;21.04;39.41
15007;BME280;7599;50.748;13.142;2023-12-20T13:10:42;94940.59;;;21.04;39.23
15007;BME280;7599;50.748;13.142;2023-12-20T13:13:48;94943.75;;;21.03;39.05
15007;BME280;7599;50.748;13.142;2023-12-20T13:17:02;94936.59;;;21.13;38.93
15007;BME280;7599;50.748;13.142;2023-12-20T13:20:07;94939.31;;;21.16;39.24
15007;BME280;7599;50.748;13.142;2023-12-20T13:23:11;94927.59;;;21.16;39.02
15007;BME280;7599;50.748;13.142;2023-12-20T13:26:14;94924.91;;;21.12;39.25
15007;BME280;7599;50.748;13.142;2023-12-20T13:29:17;94919.78;;;21.18;39.22
15007;BME280;7599;50.748;13.142;2023-12-20T13:32:20;94914.34;;;21.14;39.19
15007;BME280;7599;50.748;13.142;2023-12-20T13:35:22;94926.78;;;21.19;39.40
15007;BME280;7599;50.748;13.142;2023-12-20T13:38:27;94908.03;;;21.21;39.30
15007;BME280;7599;50.748;13.142;2023-12-20T13:41:29;94915.38;;;21.27;39.19
15007;BME280;7599;50.748;13.142;2023-12-20T13:44:32;94911.53;;;21.21;39.25
15007;BME280;7599;50.748;13.142;2023-12-20T13:47:35;94904.47;;;21.24;39.16
15007;BME280;7599;50.748;13.142;2023-12-20T13:50:38;94907.97;;;21.24;38.84
15007;BME280;7599;50.748;13.142;2023-12-20T13:53:42;94909.94;;;21.24;39.26
15007;BME280;7599;50.748;13.142;2023-12-20T13:56:44;94906.84;;;21.22;39.30
15007;BME280;7599;50.748;13.142;2023-12-20T14:00:07;94894.75;;;21.19;39.43
15007;BME280;7599;50.748;13.142;2023-12-20T14:03:16;94905.22;;;21.24;39.16
15007;BME280;7599;50.748;13.142;2023-12-20T14:06:19;94905.63;;;21.26;39.06
15007;BME280;7599;50.748;13.142;2023-12-20T14:09:23;94899.34;;;21.29;39.13
15007;BME280;7599;50.748;13.142;2023-12-20T14:12:26;94894.28;;;21.28;38.91
15007;BME280;7599;50.748;13.142;2023-12-20T14:15:28;94902.06;;;21.29;39.10
15007;BME280;7599;50.748;13.142;2023-12-20T14:18:30;94905.59;;;21.30;38.97
15007;BME280;7599;50.748;13.142;2023-12-20T14:21:34;94903.63;;;21.34;38.90
15007;BME280;7599;50.748;13.142;2023-12-20T14:24:37;94900.50;;;21.32;39.25
15007;BME280;7599;50.748;13.142;2023-12-20T14:27:41;94897.00;;;21.31;38.91
15007;BME280;7599;50.748;13.142;2023-12-20T14:30:46;94886.84;;;21.32;39.26
15007;BME280;7599;50.748;13.142;2023-12-20T14:33:50;94895.03;;;21.32;39.12
15007;BME280;7599;50.748;13.142;2023-12-20T14:36:55;94898.94;;;21.31;39.21
15007;BME280;7599;50.748;13.142;2023-12-20T14:39:59;94897.38;;;21.33;38.94
15007;BME280;7599;50.748;13.142;2023-12-20T14:43:04;94888.81;;;21.28;39.02
15007;BME280;7599;50.748;13.142;2023-12-20T14:46:07;94894.66;;;21.33;39.38
15007;BME280;7599;50.748;13.142;2023-12-20T14:49:10;94886.78;;;21.36;39.40
15007;BME280;7599;50.748;13.142;2023-12-20T14:55:32;94869.25;;;21.33;39.13
15007;BME280;7599;50.748;13.142;2023-12-20T14:58:35;94893.41;;;21.38;39.29
15007;BME280;7599;50.748;13.142;2023-12-20T15:01:38;94894.66;;;21.33;39.41
15007;BME280;7599;50.748;13.142;2023-12-20T15:04:47;94905.47;;;21.41;39.39
15007;BME280;7599;50.748;13.142;2023-12-20T15:07:52;94890.25;;;21.40;39.21
15007;BME280;7599;50.748;13.142;2023-12-20T15:10:56;94905.47;;;21.41;39.28
15007;BME280;7599;50.748;13.142;2023-12-20T15:13:58;94896.09;;;21.42;38.84
15007;BME280;7599;50.748;13.142;2023-12-20T15:17:02;94903.91;;;21.43;39.10
15007;BME280;7599;50.748;13.142;2023-12-20T15:20:06;94880.88;;;21.41;39.11
15007;BME280;7599;50.748;13.142;2023-12-20T15:23:11;94890.69;;;21.38;39.46
15007;BME280;7599;50.748;13.142;2023-12-20T15:26:15;94901.56;;;21.42;39.14
15007;BME280;7599;50.748;13.142;2023-12-20T15:29:18;94882.78;;;21.44;39.19
15007;BME280;7599;50.748;13.142;2023-12-20T15:32:21;94880.41;;;21.46;39.35
15007;BME280;7599;50.748;13.142;2023-12-20T15:35:23;94887.81;;;21.49;39.13
15007;BME280;7599;50.748;13.142;2023-12-20T15:38:26;94873.41;;;21.45;39.09
15007;BME280;7599;50.748;13.142;2023-12-20T15:41:30;94875.81;;;21.39;39.21
15007;BME280;7599;50.748;13.142;2023-12-20T15:44:33;94876.56;;;21.43;39.20
15007;BME280;7599;50.748;13.142;2023-12-20T15:47:35;94864.84;;;21.43;39.24
15007;BME280;7599;50.748;13.142;2023-12-20T15:50:39;94874.19;;;21.45;39.27
15007;BME280;7599;50.748;13.142;2023-12-20T15:53:41;94876.53;;;21.47;38.84
15007;BME280;7599;50.748;13.142;2023-12-20T15:56:45;94885.53;;;21.44;39.24
15007;BME280;7599;50.748;13.142;2023-12-20T15:59:49;94862.13;;;21.43;39.35
15007;BME280;7599;50.748;13.142;2023-12-20T16:02:52;94871.78;;;21.51;39.04
15007;BME280;7599;50.748;13.142;2023-12-20T16:05:55;94888.97;;;21.51;39.17
15007;BME280;7599;50.748;13.142;2023-12-20T16:08:59;94881.09;;;21.53;39.23
15007;BME280;7599;50.748;13.142;2023-12-20T16:12:04;94891.31;;;21.49;39.07
15007;BME280;7599;50.748;13.142;2023-12-20T16:15:08;94888.50;;;21.56;39.02